Airfield :
LOGIN :

Register | Disclaimer

   EN    FR    IT 

 










Legend :    VFR   Marginal VFR   IFR   Intensive IFR   Very Intensive IFR
Visi :
Ceiling :
>= 8 km
>= 3000ft
5 to 8 km
1000 to 3000 ft
1500m to 5 km
500 to 1000 ft
800 to 1500m
200 to 500 ft
< 800m
< 200 ft
Symbols :   Thunderstorms  Fog  Heavy snow  Heavy precipitations  Wind > 20 kt
SIGMETs :     Misc.  Thunderstorms  Icing  Turbulence  Mountain Waves  Volcanic Ashes







- Airport Elevation : 1197 ft
- IATA code : SPM


ETAD - Spangdahlem Ab

CURRENT METAR :
  • 181456Z AUTO 20009KT 9999 FEW120 FEW190 26/14 A2994 RMK AO2 SLP117 T02600141 57006 $

EXPIRED METARs :
  • 181356Z AUTO 21006KT 9999 FEW150 FEW180 SCT200 26/14 A2995 RMK AO2 SLP120 T02590137 $
  • 181256Z AUTO 16007KT 9999 SCT055 25/14 A2996 RMK AO2 SLP125 T02540136 $

TAF TAF ETAD
Valid from the 18 at 12:00 until the 19 at 18:00 UTC


181200Z 1812/1918 VRB03KT 9999 SCT050 QNH2999INS
BECMG 1817/1818 VRB05KT 9999 FEW035 BKN150 QNH2991INS
BECMG 1912/1913 20013G20KT 9999 SCT040 BKN100 QNH2986INS TX26/1813Z TN14/1904Z
No reported NOTAMs for that airfield.



MET'MAP, your aeronautical weather chart ! - Copyright ORBIFLY December 2007 - Disclaimer

ORBIFLY MET'MAP TEAM :

Programming & Development : Alexandra Zaïnal
Concept & Development : Baudouin d'Aumeries
Co-Development & Prog : Marc-Olivier Méhu
Technical & hardware support : Manuel Goepfert

Contact : metmap@orbifly.com




SOURCES & CREDITS :

   NOAA